Rechercher aéroport 
image banner adimage banner ad
image banner ad

FQIA - Inhaca

Situé à , Mozambique

ICAO - FQIA, IATA - IHC

Données fournies par Airmate  

Information générale

Coordonnées: S25°59'49" E32°55'45"
Élévation : 8 feet MSL.
 
Voir autres Aéroports à Maputo Province

Données opérationnelles

Accessible au public
Heure actuelle UTC:
Heure actuelle locale:
Météo à : FQMA - Maputo / International ( 37 km )
METAR: FQMA 030400Z 23006KT 9999 BKN020 20/17 Q1019 NOSIG
TAF: TAF FQMA 022200Z 0300/0406 23014KT 9999 BKN020 TX25/0313Z TN21/0303Z PROB30 TEMPO 0300/0306 6000 RA BKN015 BECMG 0308/0310 16010KT BECMG 0312/0314 10010KT
Voir NOTAMs / SUP AIP / TFR affectant cet aéroport [VIEW]
Fréquences de communication: [VIEW]

Pistes:

Identifiant RWYQFULongueur (ft)Largeur (ft)SurfaceLDA (ft)
10246198
28246198
18295398
36295398

Coordonnées de l'aéroport

Adresse: Mozambique

Vue satellite de FQIA